Tide Navigator — PCJP — position and weather

sailwx.info

Track history (hours):
 
Tides and Currents Weather Stations Pressure Air Temp Water Temp Dewpoint Dewpoint Depression Visibility Wind Speed Wind Dir Waves Ship Positions

Tide Navigator

Last reported at 2018-Jun-22 14:29 UTC. Time now 2018-Jun-23 12:23 UTC.
Position N 37°30' W 009°45'.

Length 118 m; draft 7.1 m.

Type: Ship. MMSI: 245086000.

Date/timePositionNaut miles runAvg speedWind from/ knotsBaromVisibWave heightAir tempDewpointWater temp
2018-Jun-22 14:29N 37°30' W 009°45'510.9
2018-Jun-22 14:00N 37°35' W 009°47'710.6
2018-Jun-22 13:20N 37°42' W 009°49'1710.6
2018-Jun-22 11:45N 37°58' W 009°54'311.1
2018-Jun-22 11:28N 38°01' W 009°55'510.7
2018-Jun-22 10:59N 38°06' W 009°56'510.5
2018-Jun-22 10:30N 38°11' W 009°58'510.9
2018-Jun-22 10:00N 38°17' W 009°59'610.7
2018-Jun-22 09:29N 38°22' W 010°01'510.6
2018-Jun-22 09:00N 38°27' W 010°02'710.7
2018-Jun-22 08:21N 38°34' W 010°04'410.9
2018-Jun-22 07:56N 38°38' W 010°06'610.8
2018-Jun-22 07:22N 38°44' W 010°06'410.8
2018-Jun-22 06:59N 38°48' W 010°06'510.9
2018-Jun-22 06:30N 38°54' W 010°06'510.5
2018-Jun-22 06:00N 38°59' W 010°06'510.7
2018-Jun-22 05:30N 39°04' W 010°06'510.8
2018-Jun-22 05:00N 39°10' W 010°06'610.9
2018-Jun-22 04:29N 39°15' W 010°06'510.7
2018-Jun-22 04:00N 39°20' W 010°06'510.6
2018-Jun-22 03:30N 39°26' W 010°06'510.7
2018-Jun-22 03:00N 39°31' W 010°06'510.6
2018-Jun-22 02:30N 39°36' W 010°06'510.5
2018-Jun-22 02:00N 39°42' W 010°06'610.9
2018-Jun-22 01:27N 39°48' W 010°06'  
2018-Jun-19 19:51N 48°56' W 005°45'610.6
2018-Jun-19 19:15N 48°59' W 005°36'310.8
2018-Jun-19 18:57N 49°00' W 005°32'511.0
2018-Jun-19 18:28N 49°03' W 005°24'9211.3
2018-Jun-19 10:20N 49°49' W 003°22'3 9.7
2018-Jun-19 09:59N 49°51' W 003°17'5 9.8
2018-Jun-19 09:30N 49°53' W 003°11'710.4
2018-Jun-19 08:52N 49°57' W 003°02'411.1
2018-Jun-19 08:30N 49°59' W 002°57'2012.4
2018-Jun-19 06:52N 50°05' W 002°26'1614.3
2018-Jun-19 05:46N 50°09' W 002°03'7710.5
2018-Jun-18 22:27N 50°30' W 000°08'610.3
2018-Jun-18 21:50N 50°32' E 000°02'411.1
2018-Jun-18 21:26N 50°33' E 000°09'511.6
2018-Jun-18 20:59N 50°35' E 000°17'612.0
2018-Jun-18 20:30N 50°36' E 000°25'612.1
2018-Jun-18 20:00N 50°38' E 000°34'612.0
2018-Jun-18 19:30N 50°41' E 000°42'611.5
2018-Jun-18 19:00N 50°45' E 000°49'611.1
2018-Jun-18 18:30N 50°48' E 000°56'510.5
2018-Jun-18 18:00N 50°51' E 001°03'510.1
2018-Jun-18 17:30N 50°55' E 001°09'5 9.6
2018-Jun-18 17:00N 50°58' E 001°15'4 8.8
2018-Jun-18 16:30N 51°00' E 001°21'4 8.3
2018-Jun-18 16:00N 51°03' E 001°26'4 8.2
2018-Jun-18 15:30N 51°06' E 001°31'4 8.3
2018-Jun-18 15:00N 51°08' E 001°36'4 8.8
2018-Jun-18 14:30N 51°11' E 001°41'5 9.4
2018-Jun-18 14:00N 51°15' E 001°46'611.1
2018-Jun-18 13:30N 51°20' E 001°50'612.4
2018-Jun-18 13:00N 51°25' E 001°54'713.1
2018-Jun-18 12:30N 51°30' E 002°00'713.5
2018-Jun-18 12:00N 51°35' E 002°08'713.5
2018-Jun-18 11:30N 51°41' E 002°15'47211.0
2018-Jun-16 16:37N 57°49' E 010°46'111.2
2018-Jun-16 16:29N 57°48' E 010°49'511.4
2018-Jun-16 16:00N 57°46' E 010°58'611.9
2018-Jun-16 15:30N 57°43' E 011°08'611.8
2018-Jun-16 15:00N 57°40' E 011°17'612.0
2018-Jun-16 14:30N 57°38' E 011°27'612.0
2018-Jun-16 14:00N 57°36' E 011°38'1 2.8
2018-Jun-16 13:30N 57°36' E 011°41'0 0.0
2018-Jun-16 13:00N 57°36' E 011°41'0 0.0
2018-Jun-16 12:30N 57°36' E 011°41'0 0.1
2018-Jun-16 12:00N 57°36' E 011°41'0 0.1
2018-Jun-16 11:31N 57°36' E 011°41'0 0.0
2018-Jun-16 10:58N 57°36' E 011°41'0 0.0
2018-Jun-16 10:25N 57°36' E 011°41'0 0.0
2018-Jun-16 09:58N 57°36' E 011°41'0 0.0
2018-Jun-16 09:28N 57°36' E 011°41'0 0.1
2018-Jun-16 08:58N 57°36' E 011°41'0 0.1
2018-Jun-16 08:28N 57°36' E 011°41'0 0.3
2018-Jun-16 08:00N 57°36' E 011°41'4 8.8
2018-Jun-16 07:30N 57°31' E 011°39'611.7
2018-Jun-16 07:00N 57°26' E 011°43'611.9
2018-Jun-16 06:30N 57°20' E 011°48'7311.5
2018-Jun-16 00:11N 56°11' E 012°27'311.3
2018-Jun-15 23:54N 56°08' E 012°31'411.0
2018-Jun-15 23:30N 56°05' E 012°36'510.1
2018-Jun-15 23:00N 56°01' E 012°41'510.6
2018-Jun-15 22:30N 55°56' E 012°44'510.7
2018-Jun-15 22:00N 55°50' E 012°44'510.8
2018-Jun-15 21:30N 55°45' E 012°42'510.6
2018-Jun-15 21:00N 55°40' E 012°42'5 9.1
2018-Jun-15 20:30N 55°35' E 012°42'5 9.7
2018-Jun-15 20:00N 55°30' E 012°43'611.3
2018-Jun-15 19:30N 55°25' E 012°41'611.5
2018-Jun-15 19:01N 55°19' E 012°41'611.0
2018-Jun-15 18:30N 55°17' E 012°50'1211.5
2018-Jun-15 17:30N 55°15' E 013°10'1411.3
2018-Jun-15 16:16N 55°15' E 013°34'411.1
2018-Jun-15 15:55N 55°14' E 013°41'611.7
2018-Jun-15 15:23N 55°14' E 013°52'511.6
2018-Jun-15 14:57N 55°14' E 014°01'511.4
2018-Jun-15 14:28N 55°13' E 014°10'510.4
2018-Jun-15 13:59N 55°15' E 014°19'611.6
2018-Jun-15 13:30N 55°20' E 014°25'611.5
2018-Jun-15 12:59N 55°24' E 014°31'611.4
2018-Jun-15 12:26N 55°28' E 014°40'1511.8
2018-Jun-15 11:11N 55°36' E 015°03'18111.1
2018-Jun-14 18:51N 58°02' E 018°17'5211.6
2018-Jun-14 14:23N 58°47' E 019°07'1111.6
2018-Jun-14 13:24N 58°57' E 019°18'511.6
2018-Jun-14 13:00N 59°01' E 019°23'611.5
2018-Jun-14 12:28N 59°06' E 019°29'611.5
2018-Jun-14 11:57N 59°11' E 019°35'611.5
2018-Jun-14 11:28N 59°16' E 019°40'611.9
2018-Jun-14 11:00N 59°21' E 019°46'611.6
2018-Jun-14 10:27N 59°26' E 019°52'611.8
2018-Jun-14 09:57N 59°32' E 019°57'511.2
2018-Jun-14 09:30N 59°37' E 019°56'611.8
2018-Jun-14 09:00N 59°41' E 019°49'911.7
2018-Jun-14 08:13N 59°48' E 019°37'211.9
2018-Jun-14 08:00N 59°50' E 019°34'611.7
2018-Jun-14 07:30N 59°55' E 019°26'611.8
2018-Jun-14 06:59N 59°59' E 019°19'611.6
2018-Jun-14 06:30N 60°04' E 019°12'611.4
2018-Jun-14 06:00N 60°08' E 019°04'510.7
2018-Jun-14 05:30N 60°13' E 019°00'611.2
2018-Jun-14 04:59N 60°19' E 019°00'511.3
2018-Jun-14 04:30N 60°25' E 018°60'611.4
2018-Jun-14 03:59N 60°30' E 018°59'510.1
2018-Jun-14 03:30N 60°35' E 019°04'911.8
2018-Jun-14 02:44N 60°39' E 019°20'311.7
2018-Jun-14 02:30N 60°41' E 019°25'611.6
2018-Jun-14 02:00N 60°44' E 019°35'4512.0
2018-Jun-13 22:15N 61°07' E 020°54'312.0
2018-Jun-13 22:00N 61°08' E 020°59'510.5
2018-Jun-13 21:30N 61°07' E 021°10'510.8
2018-Jun-13 21:00N 61°06' E 021°21'3 4.6
2018-Jun-13 20:15N 61°08' E 021°27'0 0.0
2018-Jun-13 20:00N 61°08' E 021°27'0 0.0
2018-Jun-13 19:29N 61°08' E 021°27'0 0.0
2018-Jun-13 18:58N 61°08' E 021°27'0 0.0
2018-Jun-13 18:29N 61°08' E 021°27'0 0.0
2018-Jun-13 17:56N 61°08' E 021°27'0 0.0
2018-Jun-13 17:21N 61°08' E 021°27'0 0.0
2018-Jun-13 16:55N 61°08' E 021°27'0 0.0
2018-Jun-13 16:27N 61°08' E 021°27'0 0.0
2018-Jun-13 15:59N 61°08' E 021°27'0 0.0
2018-Jun-13 15:24N 61°08' E 021°27'0 0.0
2018-Jun-13 14:55N 61°08' E 021°27'0 0.0
2018-Jun-13 14:30N 61°08' E 021°27'0 0.0
2018-Jun-13 14:00N 61°08' E 021°27'0 0.0
2018-Jun-13 13:26N 61°08' E 021°27'0 0.0
2018-Jun-13 12:59N 61°08' E 021°27'0 0.0
2018-Jun-13 12:30N 61°08' E 021°27'0 0.0
2018-Jun-13 11:57N 61°08' E 021°27'0 0.0
2018-Jun-13 11:30N 61°08' E 021°27'0 0.0
2018-Jun-13 11:00N 61°08' E 021°27'0 0.0
2018-Jun-13 10:28N 61°08' E 021°27'0 0.0
2018-Jun-13 09:59N 61°08' E 021°27'0 0.0
2018-Jun-13 09:28N 61°08' E 021°27'0 0.0
2018-Jun-13 09:00N 61°08' E 021°27'0 0.0
2018-Jun-13 08:27N 61°08' E 021°27'0 0.0
2018-Jun-13 07:59N 61°08' E 021°27'0 0.0
2018-Jun-13 07:24N 61°08' E 021°27'0 0.0
2018-Jun-13 06:59N 61°08' E 021°27'0 0.0
2018-Jun-13 06:30N 61°08' E 021°27'1 1.7
2018-Jun-13 05:58N 61°08' E 021°25'4 8.3
2018-Jun-13 05:30N 61°10' E 021°19'510.5
2018-Jun-13 05:00N 61°12' E 021°09'612.6
2018-Jun-13 04:30N 61°15' E 020°58'  
Track history (hours):
 
Tides and Currents Weather Stations Pressure Air Temp Water Temp Dewpoint Dewpoint Depression Visibility Wind Speed Wind Dir Waves Ship Positions

Tide Navigator

Last reported at 2018-Jun-22 14:29 UTC. Time now 2018-Jun-23 12:23 UTC.
Position N 37°30' W 009°45'.

Length 118 m; draft 7.1 m.

Type: Ship. MMSI: 245086000.

Date/timePositionNaut miles runAvg speedWind from/ knotsBaromVisibWave heightAir tempDewpointWater temp
2018-Jun-22 14:29N 37°30' W 009°45'510.9
2018-Jun-22 14:00N 37°35' W 009°47'710.6
2018-Jun-22 13:20N 37°42' W 009°49'1710.6
2018-Jun-22 11:45N 37°58' W 009°54'311.1
2018-Jun-22 11:28N 38°01' W 009°55'510.7
2018-Jun-22 10:59N 38°06' W 009°56'510.5
2018-Jun-22 10:30N 38°11' W 009°58'510.9
2018-Jun-22 10:00N 38°17' W 009°59'610.7
2018-Jun-22 09:29N 38°22' W 010°01'510.6
2018-Jun-22 09:00N 38°27' W 010°02'710.7
2018-Jun-22 08:21N 38°34' W 010°04'410.9
2018-Jun-22 07:56N 38°38' W 010°06'610.8
2018-Jun-22 07:22N 38°44' W 010°06'410.8
2018-Jun-22 06:59N 38°48' W 010°06'510.9
2018-Jun-22 06:30N 38°54' W 010°06'510.5
2018-Jun-22 06:00N 38°59' W 010°06'510.7
2018-Jun-22 05:30N 39°04' W 010°06'510.8
2018-Jun-22 05:00N 39°10' W 010°06'610.9
2018-Jun-22 04:29N 39°15' W 010°06'510.7
2018-Jun-22 04:00N 39°20' W 010°06'510.6
2018-Jun-22 03:30N 39°26' W 010°06'510.7
2018-Jun-22 03:00N 39°31' W 010°06'510.6
2018-Jun-22 02:30N 39°36' W 010°06'510.5
2018-Jun-22 02:00N 39°42' W 010°06'610.9
2018-Jun-22 01:27N 39°48' W 010°06'  
2018-Jun-19 19:51N 48°56' W 005°45'610.6
2018-Jun-19 19:15N 48°59' W 005°36'310.8
2018-Jun-19 18:57N 49°00' W 005°32'511.0
2018-Jun-19 18:28N 49°03' W 005°24'9211.3
2018-Jun-19 10:20N 49°49' W 003°22'3 9.7
2018-Jun-19 09:59N 49°51' W 003°17'5 9.8
2018-Jun-19 09:30N 49°53' W 003°11'710.4
2018-Jun-19 08:52N 49°57' W 003°02'411.1
2018-Jun-19 08:30N 49°59' W 002°57'2012.4
2018-Jun-19 06:52N 50°05' W 002°26'1614.3
2018-Jun-19 05:46N 50°09' W 002°03'7710.5
2018-Jun-18 22:27N 50°30' W 000°08'610.3
2018-Jun-18 21:50N 50°32' E 000°02'411.1
2018-Jun-18 21:26N 50°33' E 000°09'511.6
2018-Jun-18 20:59N 50°35' E 000°17'612.0
2018-Jun-18 20:30N 50°36' E 000°25'612.1
2018-Jun-18 20:00N 50°38' E 000°34'612.0
2018-Jun-18 19:30N 50°41' E 000°42'611.5
2018-Jun-18 19:00N 50°45' E 000°49'611.1
2018-Jun-18 18:30N 50°48' E 000°56'510.5
2018-Jun-18 18:00N 50°51' E 001°03'510.1
2018-Jun-18 17:30N 50°55' E 001°09'5 9.6
2018-Jun-18 17:00N 50°58' E 001°15'4 8.8
2018-Jun-18 16:30N 51°00' E 001°21'4 8.3
2018-Jun-18 16:00N 51°03' E 001°26'4 8.2
2018-Jun-18 15:30N 51°06' E 001°31'4 8.3
2018-Jun-18 15:00N 51°08' E 001°36'4 8.8
2018-Jun-18 14:30N 51°11' E 001°41'5 9.4
2018-Jun-18 14:00N 51°15' E 001°46'611.1
2018-Jun-18 13:30N 51°20' E 001°50'612.4
2018-Jun-18 13:00N 51°25' E 001°54'713.1
2018-Jun-18 12:30N 51°30' E 002°00'713.5
2018-Jun-18 12:00N 51°35' E 002°08'713.5
2018-Jun-18 11:30N 51°41' E 002°15'47211.0
2018-Jun-16 16:37N 57°49' E 010°46'111.2
2018-Jun-16 16:29N 57°48' E 010°49'511.4
2018-Jun-16 16:00N 57°46' E 010°58'611.9
2018-Jun-16 15:30N 57°43' E 011°08'611.8
2018-Jun-16 15:00N 57°40' E 011°17'612.0
2018-Jun-16 14:30N 57°38' E 011°27'612.0
2018-Jun-16 14:00N 57°36' E 011°38'1 2.8
2018-Jun-16 13:30N 57°36' E 011°41'0 0.0
2018-Jun-16 13:00N 57°36' E 011°41'0 0.0
2018-Jun-16 12:30N 57°36' E 011°41'0 0.1
2018-Jun-16 12:00N 57°36' E 011°41'0 0.1
2018-Jun-16 11:31N 57°36' E 011°41'0 0.0
2018-Jun-16 10:58N 57°36' E 011°41'0 0.0
2018-Jun-16 10:25N 57°36' E 011°41'0 0.0
2018-Jun-16 09:58N 57°36' E 011°41'0 0.0
2018-Jun-16 09:28N 57°36' E 011°41'0 0.1
2018-Jun-16 08:58N 57°36' E 011°41'0 0.1
2018-Jun-16 08:28N 57°36' E 011°41'0 0.3
2018-Jun-16 08:00N 57°36' E 011°41'4 8.8
2018-Jun-16 07:30N 57°31' E 011°39'611.7
2018-Jun-16 07:00N 57°26' E 011°43'611.9
2018-Jun-16 06:30N 57°20' E 011°48'7311.5
2018-Jun-16 00:11N 56°11' E 012°27'311.3
2018-Jun-15 23:54N 56°08' E 012°31'411.0
2018-Jun-15 23:30N 56°05' E 012°36'510.1
2018-Jun-15 23:00N 56°01' E 012°41'510.6
2018-Jun-15 22:30N 55°56' E 012°44'510.7
2018-Jun-15 22:00N 55°50' E 012°44'510.8
2018-Jun-15 21:30N 55°45' E 012°42'510.6
2018-Jun-15 21:00N 55°40' E 012°42'5 9.1
2018-Jun-15 20:30N 55°35' E 012°42'5 9.7
2018-Jun-15 20:00N 55°30' E 012°43'611.3
2018-Jun-15 19:30N 55°25' E 012°41'611.5
2018-Jun-15 19:01N 55°19' E 012°41'611.0
2018-Jun-15 18:30N 55°17' E 012°50'1211.5
2018-Jun-15 17:30N 55°15' E 013°10'1411.3
2018-Jun-15 16:16N 55°15' E 013°34'411.1
2018-Jun-15 15:55N 55°14' E 013°41'611.7
2018-Jun-15 15:23N 55°14' E 013°52'511.6
2018-Jun-15 14:57N 55°14' E 014°01'511.4
2018-Jun-15 14:28N 55°13' E 014°10'510.4
2018-Jun-15 13:59N 55°15' E 014°19'611.6
2018-Jun-15 13:30N 55°20' E 014°25'611.5
2018-Jun-15 12:59N 55°24' E 014°31'611.4
2018-Jun-15 12:26N 55°28' E 014°40'1511.8
2018-Jun-15 11:11N 55°36' E 015°03'18111.1
2018-Jun-14 18:51N 58°02' E 018°17'5211.6
2018-Jun-14 14:23N 58°47' E 019°07'1111.6
2018-Jun-14 13:24N 58°57' E 019°18'511.6
2018-Jun-14 13:00N 59°01' E 019°23'611.5
2018-Jun-14 12:28N 59°06' E 019°29'611.5
2018-Jun-14 11:57N 59°11' E 019°35'611.5
2018-Jun-14 11:28N 59°16' E 019°40'611.9
2018-Jun-14 11:00N 59°21' E 019°46'611.6
2018-Jun-14 10:27N 59°26' E 019°52'611.8
2018-Jun-14 09:57N 59°32' E 019°57'511.2
2018-Jun-14 09:30N 59°37' E 019°56'611.8
2018-Jun-14 09:00N 59°41' E 019°49'911.7
2018-Jun-14 08:13N 59°48' E 019°37'211.9
2018-Jun-14 08:00N 59°50' E 019°34'611.7
2018-Jun-14 07:30N 59°55' E 019°26'611.8
2018-Jun-14 06:59N 59°59' E 019°19'611.6
2018-Jun-14 06:30N 60°04' E 019°12'611.4
2018-Jun-14 06:00N 60°08' E 019°04'510.7
2018-Jun-14 05:30N 60°13' E 019°00'611.2
2018-Jun-14 04:59N 60°19' E 019°00'511.3
2018-Jun-14 04:30N 60°25' E 018°60'611.4
2018-Jun-14 03:59N 60°30' E 018°59'510.1
2018-Jun-14 03:30N 60°35' E 019°04'911.8
2018-Jun-14 02:44N 60°39' E 019°20'311.7
2018-Jun-14 02:30N 60°41' E 019°25'611.6
2018-Jun-14 02:00N 60°44' E 019°35'4512.0
2018-Jun-13 22:15N 61°07' E 020°54'312.0
2018-Jun-13 22:00N 61°08' E 020°59'510.5
2018-Jun-13 21:30N 61°07' E 021°10'510.8
2018-Jun-13 21:00N 61°06' E 021°21'3 4.6
2018-Jun-13 20:15N 61°08' E 021°27'0 0.0
2018-Jun-13 20:00N 61°08' E 021°27'0 0.0
2018-Jun-13 19:29N 61°08' E 021°27'0 0.0
2018-Jun-13 18:58N 61°08' E 021°27'0 0.0
2018-Jun-13 18:29N 61°08' E 021°27'0 0.0
2018-Jun-13 17:56N 61°08' E 021°27'0 0.0
2018-Jun-13 17:21N 61°08' E 021°27'0 0.0
2018-Jun-13 16:55N 61°08' E 021°27'0 0.0
2018-Jun-13 16:27N 61°08' E 021°27'0 0.0
2018-Jun-13 15:59N 61°08' E 021°27'0 0.0
2018-Jun-13 15:24N 61°08' E 021°27'0 0.0
2018-Jun-13 14:55N 61°08' E 021°27'0 0.0
2018-Jun-13 14:30N 61°08' E 021°27'0 0.0
2018-Jun-13 14:00N 61°08' E 021°27'0 0.0
2018-Jun-13 13:26N 61°08' E 021°27'0 0.0
2018-Jun-13 12:59N 61°08' E 021°27'0 0.0
2018-Jun-13 12:30N 61°08' E 021°27'0 0.0
2018-Jun-13 11:57N 61°08' E 021°27'0 0.0
2018-Jun-13 11:30N 61°08' E 021°27'0 0.0
2018-Jun-13 11:00N 61°08' E 021°27'0 0.0
2018-Jun-13 10:28N 61°08' E 021°27'0 0.0
2018-Jun-13 09:59N 61°08' E 021°27'0 0.0
2018-Jun-13 09:28N 61°08' E 021°27'0 0.0
2018-Jun-13 09:00N 61°08' E 021°27'0 0.0
2018-Jun-13 08:27N 61°08' E 021°27'0 0.0
2018-Jun-13 07:59N 61°08' E 021°27'0 0.0
2018-Jun-13 07:24N 61°08' E 021°27'0 0.0
2018-Jun-13 06:59N 61°08' E 021°27'0 0.0
2018-Jun-13 06:30N 61°08' E 021°27'1 1.7
2018-Jun-13 05:58N 61°08' E 021°25'4 8.3
2018-Jun-13 05:30N 61°10' E 021°19'510.5
2018-Jun-13 05:00N 61°12' E 021°09'612.6
2018-Jun-13 04:30N 61°15' E 020°58'  

Dump ship's entire track history